sensor_id;sensor_type;location;lat;lon;timestamp;temperature;humidity
27072;DHT22;14613;46.308;25.288;2023-07-13T00:00:25;23.10;78.60
27072;DHT22;14613;46.308;25.288;2023-07-13T00:02:51;23.10;78.60
27072;DHT22;14613;46.308;25.288;2023-07-13T00:05:21;23.10;78.70
27072;DHT22;14613;46.308;25.288;2023-07-13T00:07:48;23.10;78.80
27072;DHT22;14613;46.308;25.288;2023-07-13T00:10:14;23.00;79.00
27072;DHT22;14613;46.308;25.288;2023-07-13T00:12:39;22.90;79.10
27072;DHT22;14613;46.308;25.288;2023-07-13T00:15:17;22.90;79.30
27072;DHT22;14613;46.308;25.288;2023-07-13T00:17:49;22.90;79.40
27072;DHT22;14613;46.308;25.288;2023-07-13T00:20:15;22.90;79.40
27072;DHT22;14613;46.308;25.288;2023-07-13T00:22:41;22.90;79.40
27072;DHT22;14613;46.308;25.288;2023-07-13T00:25:09;22.80;79.60
27072;DHT22;14613;46.308;25.288;2023-07-13T00:27:35;22.80;79.90
27072;DHT22;14613;46.308;25.288;2023-07-13T00:30:01;22.70;79.90
27072;DHT22;14613;46.308;25.288;2023-07-13T00:32:28;22.70;79.80
27072;DHT22;14613;46.308;25.288;2023-07-13T00:34:55;22.80;79.70
27072;DHT22;14613;46.308;25.288;2023-07-13T00:37:21;22.70;79.60
27072;DHT22;14613;46.308;25.288;2023-07-13T00:39:47;22.70;79.60
27072;DHT22;14613;46.308;25.288;2023-07-13T00:42:13;22.80;79.60
27072;DHT22;14613;46.308;25.288;2023-07-13T00:44:39;22.70;79.70
27072;DHT22;14613;46.308;25.288;2023-07-13T00:47:05;22.60;79.80
27072;DHT22;14613;46.308;25.288;2023-07-13T00:49:32;22.60;80.00
27072;DHT22;14613;46.308;25.288;2023-07-13T00:52:04;22.60;80.10
27072;DHT22;14613;46.308;25.288;2023-07-13T00:54:37;22.50;80.20
27072;DHT22;14613;46.308;25.288;2023-07-13T00:57:06;22.60;80.30
27072;DHT22;14613;46.308;25.288;2023-07-13T00:59:34;22.50;80.20
27072;DHT22;14613;46.308;25.288;2023-07-13T01:02:00;22.60;80.30
27072;DHT22;14613;46.308;25.288;2023-07-13T01:04:26;22.50;80.20
27072;DHT22;14613;46.308;25.288;2023-07-13T01:06:53;22.50;80.20
27072;DHT22;14613;46.308;25.288;2023-07-13T01:09:19;22.40;80.30
27072;DHT22;14613;46.308;25.288;2023-07-13T01:11:46;22.30;80.50
27072;DHT22;14613;46.308;25.288;2023-07-13T01:14:13;22.30;80.50
27072;DHT22;14613;46.308;25.288;2023-07-13T01:16:41;22.20;80.70
27072;DHT22;14613;46.308;25.288;2023-07-13T01:19:25;22.10;80.90
27072;DHT22;14613;46.308;25.288;2023-07-13T01:21:55;22.00;81.10
27072;DHT22;14613;46.308;25.288;2023-07-13T01:24:21;21.90;81.20
27072;DHT22;14613;46.308;25.288;2023-07-13T01:26:47;21.90;81.40
27072;DHT22;14613;46.308;25.288;2023-07-13T01:29:12;21.80;81.50
27072;DHT22;14613;46.308;25.288;2023-07-13T01:31:38;21.80;81.60
27072;DHT22;14613;46.308;25.288;2023-07-13T01:34:04;21.70;81.70
27072;DHT22;14613;46.308;25.288;2023-07-13T01:36:30;21.70;81.80
27072;DHT22;14613;46.308;25.288;2023-07-13T01:38:56;21.70;81.80
27072;DHT22;14613;46.308;25.288;2023-07-13T01:41:22;21.70;81.80
27072;DHT22;14613;46.308;25.288;2023-07-13T01:43:47;21.70;81.90
27072;DHT22;14613;46.308;25.288;2023-07-13T01:46:13;21.60;81.80
27072;DHT22;14613;46.308;25.288;2023-07-13T01:48:39;21.60;81.80
27072;DHT22;14613;46.308;25.288;2023-07-13T01:51:05;21.70;81.80
27072;DHT22;14613;46.308;25.288;2023-07-13T01:53:30;21.70;81.70
27072;DHT22;14613;46.308;25.288;2023-07-13T01:55:56;21.60;81.70
27072;DHT22;14613;46.308;25.288;2023-07-13T01:58:22;21.60;81.70
27072;DHT22;14613;46.308;25.288;2023-07-13T02:00:49;21.60;81.70
27072;DHT22;14613;46.308;25.288;2023-07-13T02:03:15;21.60;81.60
27072;DHT22;14613;46.308;25.288;2023-07-13T02:05:44;21.60;81.70
27072;DHT22;14613;46.308;25.288;2023-07-13T02:08:09;21.60;81.70
27072;DHT22;14613;46.308;25.288;2023-07-13T02:10:36;21.60;81.70
27072;DHT22;14613;46.308;25.288;2023-07-13T02:13:05;21.60;81.70
27072;DHT22;14613;46.308;25.288;2023-07-13T02:15:31;21.50;81.70
27072;DHT22;14613;46.308;25.288;2023-07-13T02:17:57;21.50;81.80
27072;DHT22;14613;46.308;25.288;2023-07-13T02:20:24;21.40;81.80
27072;DHT22;14613;46.308;25.288;2023-07-13T02:22:50;21.40;82.00
27072;DHT22;14613;46.308;25.288;2023-07-13T02:25:16;21.40;82.10
27072;DHT22;14613;46.308;25.288;2023-07-13T02:27:41;21.40;82.10
27072;DHT22;14613;46.308;25.288;2023-07-13T02:30:08;21.30;82.10
27072;DHT22;14613;46.308;25.288;2023-07-13T02:32:34;21.30;82.10
27072;DHT22;14613;46.308;25.288;2023-07-13T02:35:00;21.30;82.20
27072;DHT22;14613;46.308;25.288;2023-07-13T02:37:26;21.20;82.30
27072;DHT22;14613;46.308;25.288;2023-07-13T02:39:52;21.20;82.50
27072;DHT22;14613;46.308;25.288;2023-07-13T02:42:18;21.10;82.50
27072;DHT22;14613;46.308;25.288;2023-07-13T02:44:43;21.00;82.70
27072;DHT22;14613;46.308;25.288;2023-07-13T02:47:09;21.00;83.70
27072;DHT22;14613;46.308;25.288;2023-07-13T02:49:35;20.90;83.10
27072;DHT22;14613;46.308;25.288;2023-07-13T02:52:01;20.90;83.20
27072;DHT22;14613;46.308;25.288;2023-07-13T02:54:27;20.80;83.40
27072;DHT22;14613;46.308;25.288;2023-07-13T02:56:53;20.70;83.60
27072;DHT22;14613;46.308;25.288;2023-07-13T02:59:19;20.70;83.90
27072;DHT22;14613;46.308;25.288;2023-07-13T03:01:44;20.60;84.00
27072;DHT22;14613;46.308;25.288;2023-07-13T03:04:10;20.60;84.00
27072;DHT22;14613;46.308;25.288;2023-07-13T03:06:37;20.70;84.20
27072;DHT22;14613;46.308;25.288;2023-07-13T03:09:03;20.70;84.30
27072;DHT22;14613;46.308;25.288;2023-07-13T03:11:29;20.80;84.40
27072;DHT22;14613;46.308;25.288;2023-07-13T03:13:55;21.00;84.50
27072;DHT22;14613;46.308;25.288;2023-07-13T03:16:21;21.10;85.30
27072;DHT22;14613;46.308;25.288;2023-07-13T03:18:48;21.30;84.40
27072;DHT22;14613;46.308;25.288;2023-07-13T03:21:14;21.60;84.40
27072;DHT22;14613;46.308;25.288;2023-07-13T03:23:39;21.80;84.20
27072;DHT22;14613;46.308;25.288;2023-07-13T03:26:12;22.00;84.10
27072;DHT22;14613;46.308;25.288;2023-07-13T03:28:38;22.30;83.90
27072;DHT22;14613;46.308;25.288;2023-07-13T03:31:08;22.60;83.60
27072;DHT22;14613;46.308;25.288;2023-07-13T03:33:34;22.80;83.40
27072;DHT22;14613;46.308;25.288;2023-07-13T03:36:00;23.10;83.10
27072;DHT22;14613;46.308;25.288;2023-07-13T03:38:25;23.30;82.80
27072;DHT22;14613;46.308;25.288;2023-07-13T03:40:52;23.60;82.40
27072;DHT22;14613;46.308;25.288;2023-07-13T03:43:18;23.90;82.10
27072;DHT22;14613;46.308;25.288;2023-07-13T03:45:43;24.10;81.60
27072;DHT22;14613;46.308;25.288;2023-07-13T03:48:09;24.40;81.20
27072;DHT22;14613;46.308;25.288;2023-07-13T03:50:35;24.70;80.90
27072;DHT22;14613;46.308;25.288;2023-07-13T03:53:01;24.90;80.30
27072;DHT22;14613;46.308;25.288;2023-07-13T03:55:26;25.20;79.90
27072;DHT22;14613;46.308;25.288;2023-07-13T03:58:29;25.50;79.40
27072;DHT22;14613;46.308;25.288;2023-07-13T04:00:55;25.70;78.80
27072;DHT22;14613;46.308;25.288;2023-07-13T04:03:21;26.00;78.40
27072;DHT22;14613;46.308;25.288;2023-07-13T04:05:47;26.30;77.90
27072;DHT22;14613;46.308;25.288;2023-07-13T04:08:13;26.50;77.40
27072;DHT22;14613;46.308;25.288;2023-07-13T04:10:39;26.70;76.90
27072;DHT22;14613;46.308;25.288;2023-07-13T04:13:05;26.90;76.50
27072;DHT22;14613;46.308;25.288;2023-07-13T04:15:32;27.10;76.10
27072;DHT22;14613;46.308;25.288;2023-07-13T04:17:58;27.40;75.80
27072;DHT22;14613;46.308;25.288;2023-07-13T04:20:25;27.60;75.30
27072;DHT22;14613;46.308;25.288;2023-07-13T04:22:51;27.90;74.70
27072;DHT22;14613;46.308;25.288;2023-07-13T04:25:20;28.10;74.20
27072;DHT22;14613;46.308;25.288;2023-07-13T04:27:46;28.40;73.80
27072;DHT22;14613;46.308;25.288;2023-07-13T04:30:11;28.60;73.30
27072;DHT22;14613;46.308;25.288;2023-07-13T04:32:37;28.80;72.60
27072;DHT22;14613;46.308;25.288;2023-07-13T04:35:03;28.90;72.00
27072;DHT22;14613;46.308;25.288;2023-07-13T04:37:29;29.00;71.80
27072;DHT22;14613;46.308;25.288;2023-07-13T04:39:55;29.20;71.40
27072;DHT22;14613;46.308;25.288;2023-07-13T04:42:22;29.40;71.00
27072;DHT22;14613;46.308;25.288;2023-07-13T04:44:49;29.50;70.60
27072;DHT22;14613;46.308;25.288;2023-07-13T04:47:15;29.70;70.30
27072;DHT22;14613;46.308;25.288;2023-07-13T04:49:40;29.90;69.80
27072;DHT22;14613;46.308;25.288;2023-07-13T04:52:07;30.20;69.40
27072;DHT22;14613;46.308;25.288;2023-07-13T04:54:33;30.40;69.00
27072;DHT22;14613;46.308;25.288;2023-07-13T04:56:59;30.60;68.40
27072;DHT22;14613;46.308;25.288;2023-07-13T04:59:25;30.80;67.90
27072;DHT22;14613;46.308;25.288;2023-07-13T05:01:51;31.00;67.30
27072;DHT22;14613;46.308;25.288;2023-07-13T05:04:17;31.00;66.70
27072;DHT22;14613;46.308;25.288;2023-07-13T05:06:42;31.00;66.70
27072;DHT22;14613;46.308;25.288;2023-07-13T05:09:08;31.20;66.50
27072;DHT22;14613;46.308;25.288;2023-07-13T05:11:34;31.40;66.00
27072;DHT22;14613;46.308;25.288;2023-07-13T05:14:00;31.70;65.60
27072;DHT22;14613;46.308;25.288;2023-07-13T05:16:27;31.80;64.60
27072;DHT22;14613;46.308;25.288;2023-07-13T05:18:53;31.70;64.00
27072;DHT22;14613;46.308;25.288;2023-07-13T05:21:19;31.70;63.90
27072;DHT22;14613;46.308;25.288;2023-07-13T05:23:45;31.80;63.90
27072;DHT22;14613;46.308;25.288;2023-07-13T05:26:11;32.00;63.70
27072;DHT22;14613;46.308;25.288;2023-07-13T05:28:37;32.20;63.40
27072;DHT22;14613;46.308;25.288;2023-07-13T05:31:04;32.40;63.00
27072;DHT22;14613;46.308;25.288;2023-07-13T05:33:29;32.60;62.70
27072;DHT22;14613;46.308;25.288;2023-07-13T05:35:55;32.80;62.30
27072;DHT22;14613;46.308;25.288;2023-07-13T05:38:21;33.00;61.70
27072;DHT22;14613;46.308;25.288;2023-07-13T05:40:47;33.20;61.50
27072;DHT22;14613;46.308;25.288;2023-07-13T05:43:14;33.40;61.10
27072;DHT22;14613;46.308;25.288;2023-07-13T05:45:40;33.60;60.60
27072;DHT22;14613;46.308;25.288;2023-07-13T05:48:06;33.80;60.10
27072;DHT22;14613;46.308;25.288;2023-07-13T05:50:31;33.90;59.50
27072;DHT22;14613;46.308;25.288;2023-07-13T05:52:57;34.10;59.30
27072;DHT22;14613;46.308;25.288;2023-07-13T05:55:23;34.20;59.00
27072;DHT22;14613;46.308;25.288;2023-07-13T05:57:49;34.40;58.90
27072;DHT22;14613;46.308;25.288;2023-07-13T06:00:15;34.50;58.60
27072;DHT22;14613;46.308;25.288;2023-07-13T06:02:41;34.70;58.40
27072;DHT22;14613;46.308;25.288;2023-07-13T06:05:07;34.90;58.00
27072;DHT22;14613;46.308;25.288;2023-07-13T06:07:33;35.10;57.80
27072;DHT22;14613;46.308;25.288;2023-07-13T06:09:59;35.30;57.50
27072;DHT22;14613;46.308;25.288;2023-07-13T06:12:25;35.40;57.00
27072;DHT22;14613;46.308;25.288;2023-07-13T06:14:51;35.60;56.70
27072;DHT22;14613;46.308;25.288;2023-07-13T06:17:17;35.70;56.60
27072;DHT22;14613;46.308;25.288;2023-07-13T06:19:43;35.80;56.40
27072;DHT22;14613;46.308;25.288;2023-07-13T06:22:09;36.00;56.20
27072;DHT22;14613;46.308;25.288;2023-07-13T06:24:34;36.20;56.10
27072;DHT22;14613;46.308;25.288;2023-07-13T06:27:00;36.30;55.70
27072;DHT22;14613;46.308;25.288;2023-07-13T06:29:27;36.40;55.40
27072;DHT22;14613;46.308;25.288;2023-07-13T06:31:53;36.60;55.30
27072;DHT22;14613;46.308;25.288;2023-07-13T06:34:19;36.70;55.10
27072;DHT22;14613;46.308;25.288;2023-07-13T06:36:45;36.80;54.80
27072;DHT22;14613;46.308;25.288;2023-07-13T06:39:11;36.80;54.50
27072;DHT22;14613;46.308;25.288;2023-07-13T06:41:36;36.90;54.60
27072;DHT22;14613;46.308;25.288;2023-07-13T06:44:04;36.90;54.40
27072;DHT22;14613;46.308;25.288;2023-07-13T06:46:30;37.00;54.40
27072;DHT22;14613;46.308;25.288;2023-07-13T06:48:56;37.00;54.20
27072;DHT22;14613;46.308;25.288;2023-07-13T06:51:22;37.00;54.10
27072;DHT22;14613;46.308;25.288;2023-07-13T06:53:48;37.10;54.20
27072;DHT22;14613;46.308;25.288;2023-07-13T06:56:15;37.10;53.90
27072;DHT22;14613;46.308;25.288;2023-07-13T06:58:40;37.20;53.90
27072;DHT22;14613;46.308;25.288;2023-07-13T07:01:06;37.20;53.90
27072;DHT22;14613;46.308;25.288;2023-07-13T07:03:32;37.20;53.70
27072;DHT22;14613;46.308;25.288;2023-07-13T07:06:35;37.30;53.70
27072;DHT22;14613;46.308;25.288;2023-07-13T07:08:54;37.40;53.50
27072;DHT22;14613;46.308;25.288;2023-07-13T07:11:22;37.40;53.50
27072;DHT22;14613;46.308;25.288;2023-07-13T07:13:49;37.50;53.20
27072;DHT22;14613;46.308;25.288;2023-07-13T07:16:15;37.40;53.60
27072;DHT22;14613;46.308;25.288;2023-07-13T07:18:41;37.50;53.10
27072;DHT22;14613;46.308;25.288;2023-07-13T07:21:07;37.50;52.90
27072;DHT22;14613;46.308;25.288;2023-07-13T07:23:33;37.50;52.90
27072;DHT22;14613;46.308;25.288;2023-07-13T07:25:58;37.60;52.80
27072;DHT22;14613;46.308;25.288;2023-07-13T07:28:24;37.60;52.50
27072;DHT22;14613;46.308;25.288;2023-07-13T07:30:53;37.40;52.60
27072;DHT22;14613;46.308;25.288;2023-07-13T07:33:19;37.50;52.80
27072;DHT22;14613;46.308;25.288;2023-07-13T07:35:45;37.50;52.80
27072;DHT22;14613;46.308;25.288;2023-07-13T07:38:11;37.60;52.90
27072;DHT22;14613;46.308;25.288;2023-07-13T07:40:40;37.60;52.80
27072;DHT22;14613;46.308;25.288;2023-07-13T07:43:10;37.80;52.60
27072;DHT22;14613;46.308;25.288;2023-07-13T07:45:38;37.70;52.30
27072;DHT22;14613;46.308;25.288;2023-07-13T07:48:05;37.80;52.40
27072;DHT22;14613;46.308;25.288;2023-07-13T07:50:31;37.80;52.40
27072;DHT22;14613;46.308;25.288;2023-07-13T07:52:56;37.90;52.20
27072;DHT22;14613;46.308;25.288;2023-07-13T07:55:23;37.90;52.40
27072;DHT22;14613;46.308;25.288;2023-07-13T07:57:50;38.00;52.30
27072;DHT22;14613;46.308;25.288;2023-07-13T08:00:16;38.10;52.00
27072;DHT22;14613;46.308;25.288;2023-07-13T08:02:43;38.20;51.90
27072;DHT22;14613;46.308;25.288;2023-07-13T08:05:09;38.20;52.50
27072;DHT22;14613;46.308;25.288;2023-07-13T08:07:38;38.20;51.80
27072;DHT22;14613;46.308;25.288;2023-07-13T08:10:08;38.20;51.70
27072;DHT22;14613;46.308;25.288;2023-07-13T08:12:35;38.10;51.70
27072;DHT22;14613;46.308;25.288;2023-07-13T08:15:01;38.10;51.70
27072;DHT22;14613;46.308;25.288;2023-07-13T08:17:27;38.10;51.70
27072;DHT22;14613;46.308;25.288;2023-07-13T08:19:53;38.10;51.70
27072;DHT22;14613;46.308;25.288;2023-07-13T08:22:19;38.10;51.50
27072;DHT22;14613;46.308;25.288;2023-07-13T08:24:44;38.00;51.50
27072;DHT22;14613;46.308;25.288;2023-07-13T08:27:11;38.00;51.60
27072;DHT22;14613;46.308;25.288;2023-07-13T08:29:38;38.00;51.50
27072;DHT22;14613;46.308;25.288;2023-07-13T08:32:05;38.00;51.40
27072;DHT22;14613;46.308;25.288;2023-07-13T08:34:31;37.90;51.20
27072;DHT22;14613;46.308;25.288;2023-07-13T08:36:57;37.80;51.50
27072;DHT22;14613;46.308;25.288;2023-07-13T08:39:23;37.80;51.70
27072;DHT22;14613;46.308;25.288;2023-07-13T08:41:53;37.90;51.70
27072;DHT22;14613;46.308;25.288;2023-07-13T08:44:37;38.10;51.60
27072;DHT22;14613;46.308;25.288;2023-07-13T08:47:05;38.20;51.30
27072;DHT22;14613;46.308;25.288;2023-07-13T08:49:33;38.20;50.70
27072;DHT22;14613;46.308;25.288;2023-07-13T08:54:52;37.70;50.40
27072;DHT22;14613;46.308;25.288;2023-07-13T08:57:32;37.40;51.00
27072;DHT22;14613;46.308;25.288;2023-07-13T08:59:58;37.50;51.40
27072;DHT22;14613;46.308;25.288;2023-07-13T09:02:42;37.70;51.40
27072;DHT22;14613;46.308;25.288;2023-07-13T09:10:55;38.20;50.80
27072;DHT22;14613;46.308;25.288;2023-07-13T09:15:53;38.60;50.70
27072;DHT22;14613;46.308;25.288;2023-07-13T09:21:32;38.70;50.40
27072;DHT22;14613;46.308;25.288;2023-07-13T09:26:47;38.90;50.10
27072;DHT22;14613;46.308;25.288;2023-07-13T09:29:30;39.00;50.00
27072;DHT22;14613;46.308;25.288;2023-07-13T09:32:02;39.00;50.00
27072;DHT22;14613;46.308;25.288;2023-07-13T09:34:29;38.80;49.60
27072;DHT22;14613;46.308;25.288;2023-07-13T09:36:58;38.70;50.00
27072;DHT22;14613;46.308;25.288;2023-07-13T09:39:28;38.60;50.20
27072;DHT22;14613;46.308;25.288;2023-07-13T09:47:18;38.70;49.80
27072;DHT22;14613;46.308;25.288;2023-07-13T09:49:44;38.70;49.80
27072;DHT22;14613;46.308;25.288;2023-07-13T09:52:13;38.60;50.00
27072;DHT22;14613;46.308;25.288;2023-07-13T09:54:43;38.40;50.00
27072;DHT22;14613;46.308;25.288;2023-07-13T09:57:15;38.40;50.30
27072;DHT22;14613;46.308;25.288;2023-07-13T09:59:50;38.30;50.30
27072;DHT22;14613;46.308;25.288;2023-07-13T10:02:25;38.20;50.30
27072;DHT22;14613;46.308;25.288;2023-07-13T10:05:17;38.20;50.50
27072;DHT22;14613;46.308;25.288;2023-07-13T10:07:45;38.20;50.40
27072;DHT22;14613;46.308;25.288;2023-07-13T10:10:20;38.40;50.50
27072;DHT22;14613;46.308;25.288;2023-07-13T10:12:46;38.40;50.40
27072;DHT22;14613;46.308;25.288;2023-07-13T10:15:21;38.40;50.20
27072;DHT22;14613;46.308;25.288;2023-07-13T10:17:48;38.40;50.30
27072;DHT22;14613;46.308;25.288;2023-07-13T10:20:14;38.40;50.50
27072;DHT22;14613;46.308;25.288;2023-07-13T10:22:59;38.40;50.40
27072;DHT22;14613;46.308;25.288;2023-07-13T10:25:38;38.60;50.40
27072;DHT22;14613;46.308;25.288;2023-07-13T10:28:25;38.70;50.00
27072;DHT22;14613;46.308;25.288;2023-07-13T10:30:52;38.60;50.00
27072;DHT22;14613;46.308;25.288;2023-07-13T10:33:19;38.60;50.00
27072;DHT22;14613;46.308;25.288;2023-07-13T10:35:47;38.70;49.70
27072;DHT22;14613;46.308;25.288;2023-07-13T10:38:22;38.90;49.50
27072;DHT22;14613;46.308;25.288;2023-07-13T10:41:03;39.10;49.20
27072;DHT22;14613;46.308;25.288;2023-07-13T10:43:41;39.20;48.50
27072;DHT22;14613;46.308;25.288;2023-07-13T10:46:11;39.10;48.10
27072;DHT22;14613;46.308;25.288;2023-07-13T10:48:39;38.90;47.90
27072;DHT22;14613;46.308;25.288;2023-07-13T10:51:06;38.70;48.00
27072;DHT22;14613;46.308;25.288;2023-07-13T10:53:37;38.60;48.10
27072;DHT22;14613;46.308;25.288;2023-07-13T10:58:41;38.30;48.40
27072;DHT22;14613;46.308;25.288;2023-07-13T11:01:17;38.20;48.50
27072;DHT22;14613;46.308;25.288;2023-07-13T11:08:38;38.10;48.50
27072;DHT22;14613;46.308;25.288;2023-07-13T11:24:52;38.20;47.80
27072;DHT22;14613;46.308;25.288;2023-07-13T11:27:38;38.00;47.40
27072;DHT22;14613;46.308;25.288;2023-07-13T11:33:25;37.30;48.20
27072;DHT22;14613;46.308;25.288;2023-07-13T11:36:16;37.10;48.50
27072;DHT22;14613;46.308;25.288;2023-07-13T11:38:45;37.10;48.70
27072;DHT22;14613;46.308;25.288;2023-07-13T11:41:45;37.10;48.60
27072;DHT22;14613;46.308;25.288;2023-07-13T11:44:20;37.10;48.60
27072;DHT22;14613;46.308;25.288;2023-07-13T11:46:54;37.10;48.70
27072;DHT22;14613;46.308;25.288;2023-07-13T11:49:25;37.10;48.70
27072;DHT22;14613;46.308;25.288;2023-07-13T11:51:53;37.10;48.60
27072;DHT22;14613;46.308;25.288;2023-07-13T11:54:29;36.90;48.60
27072;DHT22;14613;46.308;25.288;2023-07-13T11:56:58;36.80;48.70
27072;DHT22;14613;46.308;25.288;2023-07-13T11:59:27;36.70;48.70
27072;DHT22;14613;46.308;25.288;2023-07-13T12:01:54;36.60;48.80
27072;DHT22;14613;46.308;25.288;2023-07-13T12:04:29;36.40;49.10
27072;DHT22;14613;46.308;25.288;2023-07-13T12:07:16;36.50;49.30
27072;DHT22;14613;46.308;25.288;2023-07-13T12:09:42;36.60;49.20
27072;DHT22;14613;46.308;25.288;2023-07-13T12:12:21;36.70;49.20
27072;DHT22;14613;46.308;25.288;2023-07-13T12:14:51;36.80;49.00
27072;DHT22;14613;46.308;25.288;2023-07-13T12:17:22;36.90;49.00
27072;DHT22;14613;46.308;25.288;2023-07-13T12:19:49;37.00;48.90
27072;DHT22;14613;46.308;25.288;2023-07-13T12:22:16;37.10;48.70
27072;DHT22;14613;46.308;25.288;2023-07-13T12:24:43;37.20;48.70
27072;DHT22;14613;46.308;25.288;2023-07-13T12:27:28;37.40;48.80
27072;DHT22;14613;46.308;25.288;2023-07-13T12:29:58;37.50;48.80
27072;DHT22;14613;46.308;25.288;2023-07-13T12:32:25;37.60;48.60
27072;DHT22;14613;46.308;25.288;2023-07-13T12:34:53;37.60;48.50
27072;DHT22;14613;46.308;25.288;2023-07-13T12:37:19;37.70;48.60
27072;DHT22;14613;46.308;25.288;2023-07-13T12:39:47;37.70;48.60
27072;DHT22;14613;46.308;25.288;2023-07-13T12:45:05;37.80;48.70
27072;DHT22;14613;46.308;25.288;2023-07-13T12:47:42;37.90;48.60
27072;DHT22;14613;46.308;25.288;2023-07-13T12:50:34;38.00;48.50
27072;DHT22;14613;46.308;25.288;2023-07-13T12:53:04;37.90;48.20
27072;DHT22;14613;46.308;25.288;2023-07-13T12:55:44;37.80;48.30
27072;DHT22;14613;46.308;25.288;2023-07-13T12:58:25;37.80;48.40
27072;DHT22;14613;46.308;25.288;2023-07-13T13:00:54;37.90;48.40
27072;DHT22;14613;46.308;25.288;2023-07-13T13:03:27;37.90;48.30
27072;DHT22;14613;46.308;25.288;2023-07-13T13:06:20;37.80;48.30
27072;DHT22;14613;46.308;25.288;2023-07-13T13:08:51;37.80;48.40
27072;DHT22;14613;46.308;25.288;2023-07-13T13:11:19;37.80;48.40
27072;DHT22;14613;46.308;25.288;2023-07-13T13:13:45;37.80;48.50
27072;DHT22;14613;46.308;25.288;2023-07-13T13:16:26;37.90;48.40
27072;DHT22;14613;46.308;25.288;2023-07-13T13:18:56;37.90;48.30
27072;DHT22;14613;46.308;25.288;2023-07-13T13:21:25;37.90;48.30
27072;DHT22;14613;46.308;25.288;2023-07-13T13:23:51;37.90;48.20
27072;DHT22;14613;46.308;25.288;2023-07-13T13:26:19;37.80;48.10
27072;DHT22;14613;46.308;25.288;2023-07-13T13:28:45;37.80;48.10
27072;DHT22;14613;46.308;25.288;2023-07-13T13:31:13;37.70;48.20
27072;DHT22;14613;46.308;25.288;2023-07-13T13:33:41;37.70;48.30
27072;DHT22;14613;46.308;25.288;2023-07-13T13:36:22;37.60;48.20
27072;DHT22;14613;46.308;25.288;2023-07-13T13:38:50;37.70;48.30
27072;DHT22;14613;46.308;25.288;2023-07-13T13:41:16;37.70;48.30
27072;DHT22;14613;46.308;25.288;2023-07-13T13:43:43;37.70;48.20
27072;DHT22;14613;46.308;25.288;2023-07-13T13:46:19;37.70;48.20
27072;DHT22;14613;46.308;25.288;2023-07-13T13:48:46;37.70;48.10
27072;DHT22;14613;46.308;25.288;2023-07-13T13:51:22;37.60;48.00
27072;DHT22;14613;46.308;25.288;2023-07-13T13:53:50;37.50;48.10
27072;DHT22;14613;46.308;25.288;2023-07-13T13:56:18;37.40;48.20
27072;DHT22;14613;46.308;25.288;2023-07-13T13:58:44;37.40;48.30
27072;DHT22;14613;46.308;25.288;2023-07-13T14:01:21;37.40;48.30
27072;DHT22;14613;46.308;25.288;2023-07-13T14:03:48;37.40;48.30
27072;DHT22;14613;46.308;25.288;2023-07-13T14:06:16;37.40;48.40
27072;DHT22;14613;46.308;25.288;2023-07-13T14:08:42;37.50;48.50
27072;DHT22;14613;46.308;25.288;2023-07-13T14:11:13;37.50;48.50
27072;DHT22;14613;46.308;25.288;2023-07-13T14:13:47;37.50;48.50
27072;DHT22;14613;46.308;25.288;2023-07-13T14:16:19;37.50;48.60
27072;DHT22;14613;46.308;25.288;2023-07-13T14:18:46;37.50;48.60
27072;DHT22;14613;46.308;25.288;2023-07-13T14:21:18;37.60;48.70
27072;DHT22;14613;46.308;25.288;2023-07-13T14:23:45;37.60;48.50
27072;DHT22;14613;46.308;25.288;2023-07-13T14:26:25;37.60;48.60
27072;DHT22;14613;46.308;25.288;2023-07-13T14:28:56;37.50;48.60
27072;DHT22;14613;46.308;25.288;2023-07-13T14:31:24;37.40;48.70
27072;DHT22;14613;46.308;25.288;2023-07-13T14:33:51;37.40;48.80
27072;DHT22;14613;46.308;25.288;2023-07-13T14:53:10;37.10;49.40
27072;DHT22;14613;46.308;25.288;2023-07-13T14:55:36;37.10;49.50
27072;DHT22;14613;46.308;25.288;2023-07-13T15:08:09;36.70;50.00
27072;DHT22;14613;46.308;25.288;2023-07-13T15:10:36;36.70;50.20
27072;DHT22;14613;46.308;25.288;2023-07-13T15:13:17;36.70;50.30
27072;DHT22;14613;46.308;25.288;2023-07-13T15:15:48;36.70;50.40
27072;DHT22;14613;46.308;25.288;2023-07-13T15:18:16;36.70;50.40
27072;DHT22;14613;46.308;25.288;2023-07-13T15:20:44;36.70;50.40
27072;DHT22;14613;46.308;25.288;2023-07-13T15:23:12;36.70;50.50
27072;DHT22;14613;46.308;25.288;2023-07-13T15:25:38;36.70;50.50
27072;DHT22;14613;46.308;25.288;2023-07-13T15:28:04;36.60;50.60
27072;DHT22;14613;46.308;25.288;2023-07-13T15:30:49;36.60;50.70
27072;DHT22;14613;46.308;25.288;2023-07-13T15:33:17;36.50;50.70
27072;DHT22;14613;46.308;25.288;2023-07-13T15:35:45;36.40;51.50
27072;DHT22;14613;46.308;25.288;2023-07-13T15:38:21;36.40;50.90
27072;DHT22;14613;46.308;25.288;2023-07-13T15:40:49;36.30;51.00
27072;DHT22;14613;46.308;25.288;2023-07-13T15:43:16;36.20;51.20
27072;DHT22;14613;46.308;25.288;2023-07-13T15:45:43;36.10;51.40
27072;DHT22;14613;46.308;25.288;2023-07-13T15:48:15;36.00;51.40
27072;DHT22;14613;46.308;25.288;2023-07-13T16:33:05;34.90;53.30
27072;DHT22;14613;46.308;25.288;2023-07-13T16:35:37;34.80;53.40
27072;DHT22;14613;46.308;25.288;2023-07-13T16:38:08;34.80;53.50
27072;DHT22;14613;46.308;25.288;2023-07-13T16:40:38;34.70;53.40
27072;DHT22;14613;46.308;25.288;2023-07-13T16:43:06;34.70;53.50
27072;DHT22;14613;46.308;25.288;2023-07-13T16:45:34;34.70;53.70
27072;DHT22;14613;46.308;25.288;2023-07-13T16:48:01;34.60;53.70
27072;DHT22;14613;46.308;25.288;2023-07-13T16:50:30;34.60;53.90
27072;DHT22;14613;46.308;25.288;2023-07-13T16:52:57;34.50;53.90
27072;DHT22;14613;46.308;25.288;2023-07-13T16:55:23;34.40;54.00
27072;DHT22;14613;46.308;25.288;2023-07-13T16:57:57;34.30;54.10
27072;DHT22;14613;46.308;25.288;2023-07-13T17:00:32;34.20;54.10
27072;DHT22;14613;46.308;25.288;2023-07-13T17:03:04;34.20;54.30
27072;DHT22;14613;46.308;25.288;2023-07-13T17:05:37;34.10;54.40
27072;DHT22;14613;46.308;25.288;2023-07-13T17:08:25;34.00;54.50
27072;DHT22;14613;46.308;25.288;2023-07-13T17:10:56;33.90;54.70
27072;DHT22;14613;46.308;25.288;2023-07-13T17:13:23;33.80;54.80
27072;DHT22;14613;46.308;25.288;2023-07-13T17:15:52;33.60;54.80
27072;DHT22;14613;46.308;25.288;2023-07-13T17:18:23;33.50;55.10
27072;DHT22;14613;46.308;25.288;2023-07-13T17:20:50;33.40;55.20
27072;DHT22;14613;46.308;25.288;2023-07-13T17:23:23;33.30;55.30